createdAt,value
2022-10-20T06:15:26.997Z,3.76
2022-10-20T06:25:26.992Z,3.77
2022-10-20T06:35:26.997Z,4.05
2022-10-20T06:45:27.024Z,4.23
2022-10-20T06:55:27.024Z,4.41
2022-10-20T07:05:27.019Z,4.57
2022-10-20T07:15:27.156Z,4.84
2022-10-20T07:25:27.247Z,5.42
2022-10-20T07:35:27.049Z,5.94
2022-10-20T07:45:27.159Z,6.49
2022-10-20T07:55:38.101Z,6.90
2022-10-20T08:05:27.039Z,7.24
2022-10-20T08:15:27.137Z,7.48
2022-10-20T08:25:26.999Z,7.90
2022-10-20T08:35:27.233Z,8.28
2022-10-20T08:45:27.153Z,8.48
2022-10-20T08:55:27.184Z,8.99
2022-10-20T09:05:27.231Z,9.21
2022-10-20T09:15:27.042Z,9.11
2022-10-20T09:25:27.076Z,9.64
2022-10-20T09:35:27.021Z,9.67
2022-10-20T09:45:27.132Z,9.54
2022-10-20T09:55:27.482Z,9.59
2022-10-20T10:05:27.367Z,9.70
2022-10-20T10:15:27.511Z,9.96
2022-10-20T10:25:27.901Z,10.13
2022-10-20T10:35:27.928Z,10.33
2022-10-20T10:45:28.065Z,10.65
2022-10-20T10:55:47.802Z,10.68
2022-10-20T11:05:27.963Z,10.35
2022-10-20T11:15:28.096Z,10.32
2022-10-20T11:25:28.155Z,10.98
2022-10-20T11:35:28.141Z,10.86
2022-10-20T11:45:28.012Z,11.03
2022-10-20T11:55:28.179Z,11.47
2022-10-20T12:05:28.083Z,11.85
2022-10-20T12:15:28.237Z,12.14
2022-10-20T12:25:28.126Z,12.30
2022-10-20T12:35:27.991Z,12.47
2022-10-20T12:45:28.163Z,12.57
2022-10-20T13:05:28.206Z,12.68
2022-10-20T13:15:28.182Z,12.93
2022-10-20T13:25:28.076Z,13.20
2022-10-20T13:35:28.224Z,13.00
2022-10-20T13:45:28.426Z,12.74
2022-10-20T13:55:28.527Z,12.57
2022-10-20T14:05:28.363Z,12.53
2022-10-20T14:15:28.194Z,12.39
2022-10-20T14:25:28.492Z,12.27
2022-10-20T14:35:28.397Z,12.19
2022-10-20T14:45:28.525Z,12.11
2022-10-20T14:55:28.276Z,12.12
2022-10-20T15:05:28.400Z,12.06
2022-10-20T15:15:28.509Z,12.05
2022-10-20T15:25:28.259Z,12.01
2022-10-20T15:35:28.598Z,12.03
2022-10-20T15:45:28.252Z,12.03
2022-10-20T15:55:28.313Z,11.95
2022-10-20T16:05:28.514Z,11.84
2022-10-20T16:15:30.375Z,11.82
2022-10-20T16:25:28.545Z,11.81
2022-10-20T16:35:28.395Z,11.88
2022-10-20T16:45:28.467Z,11.83
2022-10-20T16:55:28.565Z,11.89
2022-10-20T17:05:28.548Z,11.91
2022-10-20T17:15:28.439Z,11.58
2022-10-20T17:25:28.432Z,11.28
2022-10-20T17:35:28.643Z,10.80
2022-10-20T17:45:28.556Z,10.73
2022-10-20T17:55:28.516Z,10.54
2022-10-20T18:05:28.459Z,10.37
2022-10-20T18:15:28.539Z,10.31
2022-10-20T18:25:28.424Z,10.39
2022-10-20T18:35:28.472Z,10.25
2022-10-20T18:45:28.534Z,10.13
2022-10-20T18:55:28.662Z,10.28
2022-10-20T19:05:28.783Z,10.18
2022-10-20T19:15:28.971Z,10.06
